Time;durP1;ratioP1;P1;durP2;ratioP2;P2;SDS_P1;SDS_P2;PMS_P1;PMS_P2;Temp;Humidity;BMP_temperature;BMP_pressure;BME280_temperature;BME280_humidity;BME280_pressure;Samples;Min_cycle;Max_cycle;Signal;HPM_P1;HPM_P2
2023/07/23 00:03:25;;;;;;;;;;;23.90;61.70;;;;;;8479477;27;19911;-49
2023/07/23 00:07:26;;;;;;;;;;;23.90;61.70;;;;;;8479407;27;20007;-50
2023/07/23 00:11:26;;;;;;;;;;;23.90;61.70;;;;;;8497677;27;19936;-51
2023/07/23 00:15:27;;;;;;;;;;;23.90;62.50;;;;;;8450536;28;19924;-51
2023/07/23 00:19:27;;;;;;;;;;;23.90;61.70;;;;;;8463306;28;20396;-52
2023/07/23 00:23:28;;;;;;;;;;;23.90;61.80;;;;;;8463161;28;19938;-49
2023/07/23 00:27:28;;;;;;;;;;;23.90;61.80;;;;;;8463371;27;19912;-49
2023/07/23 00:31:29;;;;;;;;;;;23.90;61.80;;;;;;8462957;28;20394;-51
2023/07/23 00:35:30;;;;;;;;;;;23.90;61.80;;;;;;8462508;28;19912;-50
2023/07/23 00:39:30;;;;;;;;;;;23.90;61.80;;;;;;8462951;28;20390;-50
2023/07/23 00:43:31;;;;;;;;;;;23.90;61.80;;;;;;8462613;28;19919;-48
2023/07/23 00:47:32;;;;;;;;;;;23.90;61.70;;;;;;8462869;28;20002;-50
2023/07/23 00:51:32;;;;;;;;;;;23.90;61.80;;;;;;8462480;28;20357;-51
2023/07/23 00:55:33;;;;;;;;;;;23.90;61.80;;;;;;8462465;27;19919;-48
2023/07/23 00:59:34;;;;;;;;;;;23.90;61.80;;;;;;8462312;28;20564;-51
2023/07/23 01:03:34;;;;;;;;;;;23.90;61.80;;;;;;8462083;28;20014;-50
2023/07/23 01:07:36;;;;;;;;;;;23.90;61.80;;;;;;8462080;28;19912;-50
2023/07/23 01:11:37;;;;;;;;;;;23.90;61.80;;;;;;8461651;28;19912;-51
2023/07/23 01:15:37;;;;;;;;;;;23.90;61.70;;;;;;8491091;27;19923;-51
2023/07/23 01:19:38;;;;;;;;;;;23.90;61.80;;;;;;8495501;27;20424;-50
2023/07/23 01:23:38;;;;;;;;;;;23.90;61.80;;;;;;8477294;27;19938;-51
2023/07/23 01:27:39;;;;;;;;;;;23.90;61.70;;;;;;8496020;27;19937;-51
2023/07/23 01:31:39;;;;;;;;;;;23.90;61.70;;;;;;8495229;27;19965;-49
2023/07/23 01:35:40;;;;;;;;;;;23.90;61.70;;;;;;8495481;27;19915;-51
2023/07/23 01:39:42;;;;;;;;;;;23.90;61.90;;;;;;8495390;27;19912;-51
2023/07/23 01:43:43;;;;;;;;;;;23.80;61.80;;;;;;8495348;27;19908;-51
2023/07/23 01:47:43;;;;;;;;;;;23.80;61.80;;;;;;8495058;27;19914;-51
2023/07/23 01:51:44;;;;;;;;;;;23.80;61.80;;;;;;8494854;27;19907;-51
2023/07/23 01:55:44;;;;;;;;;;;23.80;61.80;;;;;;8477174;27;20287;-51
2023/07/23 01:59:47;;;;;;;;;;;23.90;61.80;;;;;;8494938;28;20439;-50
2023/07/23 02:03:48;;;;;;;;;;;23.90;61.90;;;;;;8494822;28;19911;-49
2023/07/23 02:07:48;;;;;;;;;;;23.80;61.80;;;;;;8494359;28;19918;-50
2023/07/23 02:11:49;;;;;;;;;;;23.80;61.80;;;;;;8476335;28;19947;-49
2023/07/23 02:15:49;;;;;;;;;;;23.90;61.80;;;;;;8494327;28;19955;-51
2023/07/23 02:19:50;;;;;;;;;;;23.80;61.70;;;;;;8510691;27;19965;-48
2023/07/23 02:23:51;;;;;;;;;;;23.90;61.80;;;;;;8476530;28;19924;-51
2023/07/23 02:27:51;;;;;;;;;;;23.80;61.70;;;;;;8494721;27;20384;-51
2023/07/23 02:31:52;;;;;;;;;;;23.90;61.80;;;;;;8494758;28;19912;-49
2023/07/23 02:35:52;;;;;;;;;;;23.90;61.80;;;;;;8494039;28;20410;-51
2023/07/23 02:39:53;;;;;;;;;;;23.90;61.90;;;;;;8481361;27;20486;-50
2023/07/23 02:43:54;;;;;;;;;;;23.90;61.80;;;;;;8500983;27;19959;-49
2023/07/23 02:47:54;;;;;;;;;;;23.80;61.80;;;;;;8500571;27;19919;-50
2023/07/23 02:51:55;;;;;;;;;;;23.80;61.80;;;;;;8500372;27;19922;-48
2023/07/23 02:55:55;;;;;;;;;;;23.80;61.80;;;;;;8500749;27;19922;-51
2023/07/23 02:59:56;;;;;;;;;;;23.80;61.90;;;;;;8499966;27;19911;-48
2023/07/23 03:03:56;;;;;;;;;;;23.80;62.00;;;;;;8500260;27;20357;-49
2023/07/23 03:07:57;;;;;;;;;;;23.80;62.70;;;;;;8499851;27;19911;-50
2023/07/23 03:11:57;;;;;;;;;;;23.80;61.90;;;;;;8499896;27;19915;-50
2023/07/23 03:15:58;;;;;;;;;;;23.80;61.80;;;;;;8464129;28;19931;-49
2023/07/23 03:19:58;;;;;;;;;;;23.80;61.90;;;;;;8465584;28;19919;-50
2023/07/23 03:23:59;;;;;;;;;;;23.80;61.90;;;;;;8465189;28;20266;-50
2023/07/23 03:27:59;;;;;;;;;;;23.80;61.90;;;;;;8465687;27;19912;-51
2023/07/23 03:32:00;;;;;;;;;;;23.80;61.80;;;;;;8498218;27;19912;-49
2023/07/23 03:36:00;;;;;;;;;;;23.80;61.90;;;;;;8464820;28;19916;-51
2023/07/23 03:40:01;;;;;;;;;;;23.80;61.80;;;;;;8464916;28;19912;-51
2023/07/23 03:44:02;;;;;;;;;;;23.80;61.80;;;;;;8464757;28;20388;-51
2023/07/23 03:48:03;;;;;;;;;;;23.80;61.80;;;;;;8464242;28;19911;-50
2023/07/23 03:52:04;;;;;;;;;;;23.80;61.80;;;;;;8463797;28;19912;-50
2023/07/23 03:56:05;;;;;;;;;;;23.80;61.90;;;;;;8464570;27;19969;-49
2023/07/23 04:00:06;;;;;;;;;;;23.80;61.80;;;;;;8464031;28;19912;-51
2023/07/23 04:04:06;;;;;;;;;;;23.80;61.80;;;;;;8464153;28;20364;-51
2023/07/23 04:08:07;;;;;;;;;;;23.80;61.80;;;;;;8496780;27;19908;-50
2023/07/23 04:12:09;;;;;;;;;;;23.80;62.00;;;;;;8463933;28;20025;-52
2023/07/23 04:16:10;;;;;;;;;;;23.80;62.00;;;;;;8496539;27;19963;-47
2023/07/23 04:20:11;;;;;;;;;;;23.80;62.00;;;;;;8463797;28;19908;-48
2023/07/23 04:24:12;;;;;;;;;;;23.80;62.00;;;;;;8464059;28;20007;-49
2023/07/23 04:28:12;;;;;;;;;;;23.80;62.00;;;;;;8463828;27;19907;-48
2023/07/23 04:32:13;;;;;;;;;;;23.80;61.90;;;;;;8463490;28;19918;-47
2023/07/23 04:36:14;;;;;;;;;;;23.80;61.90;;;;;;8463325;28;20056;-47
2023/07/23 04:40:14;;;;;;;;;;;23.80;61.90;;;;;;8463320;28;19915;-51
2023/07/23 04:44:15;;;;;;;;;;;23.80;61.90;;;;;;8496152;27;19922;-48
2023/07/23 04:48:16;;;;;;;;;;;23.80;61.90;;;;;;8463350;28;19918;-49
2023/07/23 04:52:17;;;;;;;;;;;23.80;62.00;;;;;;8462786;28;19959;-49
2023/07/23 04:56:17;;;;;;;;;;;23.80;61.90;;;;;;8463199;28;20412;-48
2023/07/23 05:00:18;;;;;;;;;;;23.80;62.00;;;;;;8461999;28;20284;-51
2023/07/23 05:04:18;;;;;;;;;;;23.80;61.90;;;;;;8462063;28;20016;-51
2023/07/23 05:08:19;;;;;;;;;;;23.80;62.00;;;;;;8462290;28;19912;-48
2023/07/23 05:12:20;;;;;;;;;;;23.80;62.00;;;;;;8463209;27;19908;-50
2023/07/23 05:16:20;;;;;;;;;;;23.80;62.00;;;;;;8495837;27;20001;-50
2023/07/23 05:20:21;;;;;;;;;;;23.80;61.90;;;;;;8495366;27;19918;-49
2023/07/23 05:24:21;;;;;;;;;;;23.80;62.00;;;;;;8495699;27;20452;-51
2023/07/23 05:28:22;;;;;;;;;;;23.80;62.00;;;;;;8495564;27;19916;-51
2023/07/23 05:32:22;;;;;;;;;;;23.80;62.10;;;;;;8495252;27;20356;-50
2023/07/23 05:36:23;;;;;;;;;;;23.80;62.00;;;;;;8495467;27;19917;-50
2023/07/23 05:40:23;;;;;;;;;;;23.70;62.00;;;;;;8495396;27;20560;-50
2023/07/23 05:44:25;;;;;;;;;;;23.80;62.10;;;;;;8494927;27;20010;-50
2023/07/23 05:48:26;;;;;;;;;;;23.80;62.00;;;;;;8476565;27;20364;-50
2023/07/23 05:52:26;;;;;;;;;;;23.80;62.00;;;;;;8494630;27;20277;-52
2023/07/23 05:56:27;;;;;;;;;;;23.80;62.00;;;;;;8495545;27;19961;-50
2023/07/23 06:00:28;;;;;;;;;;;23.80;62.00;;;;;;8494746;28;19918;-51
2023/07/23 06:04:28;;;;;;;;;;;23.80;62.00;;;;;;8510329;27;19960;-49
2023/07/23 06:08:29;;;;;;;;;;;23.80;62.00;;;;;;8494621;28;19918;-51
2023/07/23 06:12:29;;;;;;;;;;;23.80;62.00;;;;;;8477685;27;19918;-49
2023/07/23 06:16:30;;;;;;;;;;;23.80;62.00;;;;;;8482840;27;20288;-50
2023/07/23 06:20:30;;;;;;;;;;;23.80;62.00;;;;;;8501187;27;20291;-51
2023/07/23 06:24:31;;;;;;;;;;;23.80;62.00;;;;;;8501821;27;19965;-51
2023/07/23 06:28:31;;;;;;;;;;;23.80;62.00;;;;;;8500978;27;19911;-50
2023/07/23 06:32:32;;;;;;;;;;;23.70;61.90;;;;;;8501256;27;19915;-51
2023/07/23 06:36:32;;;;;;;;;;;23.80;62.10;;;;;;8500891;27;19915;-50
2023/07/23 06:40:33;;;;;;;;;;;23.80;62.10;;;;;;8500581;27;20286;-49
2023/07/23 06:44:33;;;;;;;;;;;23.70;62.10;;;;;;8500845;27;19911;-51
2023/07/23 06:48:34;;;;;;;;;;;23.70;62.10;;;;;;8500095;27;19943;-51
2023/07/23 06:52:34;;;;;;;;;;;23.70;62.10;;;;;;8500309;27;20346;-51
2023/07/23 06:56:35;;;;;;;;;;;23.70;62.10;;;;;;8500516;27;20376;-50
2023/07/23 07:00:36;;;;;;;;;;;23.70;62.10;;;;;;8500278;27;19911;-50
2023/07/23 07:04:37;;;;;;;;;;;23.70;62.10;;;;;;8500277;27;20265;-49
2023/07/23 07:08:37;;;;;;;;;;;23.70;62.00;;;;;;8500572;27;19919;-51
2023/07/23 07:12:38;;;;;;;;;;;23.80;62.10;;;;;;8499300;27;19919;-50
2023/07/23 07:16:38;;;;;;;;;;;23.80;62.10;;;;;;8481380;27;20261;-51
2023/07/23 07:20:39;;;;;;;;;;;23.80;62.00;;;;;;8481060;27;19918;-49
2023/07/23 07:24:39;;;;;;;;;;;23.70;62.00;;;;;;8499425;27;19912;-50
2023/07/23 07:28:40;;;;;;;;;;;23.70;62.00;;;;;;8499536;27;19907;-52
2023/07/23 07:32:41;;;;;;;;;;;23.80;62.00;;;;;;8499033;27;20015;-50
2023/07/23 07:36:41;;;;;;;;;;;23.80;62.10;;;;;;8499091;27;19923;-51
2023/07/23 07:40:42;;;;;;;;;;;23.80;62.10;;;;;;8498844;27;20454;-50
2023/07/23 07:44:42;;;;;;;;;;;23.80;62.00;;;;;;8480387;27;19960;-50
2023/07/23 07:48:43;;;;;;;;;;;23.70;62.00;;;;;;8498687;27;19907;-51
2023/07/23 07:52:43;;;;;;;;;;;23.70;62.00;;;;;;8514658;27;19911;-48
2023/07/23 07:56:44;;;;;;;;;;;23.70;62.10;;;;;;8498638;27;20514;-51
2023/07/23 08:00:44;;;;;;;;;;;23.70;62.10;;;;;;8498255;27;19986;-49
2023/07/23 08:04:45;;;;;;;;;;;23.70;62.10;;;;;;8479834;27;19920;-50
2023/07/23 08:08:47;;;;;;;;;;;23.80;62.20;;;;;;8497799;27;20396;-49
2023/07/23 08:12:48;;;;;;;;;;;23.70;62.10;;;;;;8497719;27;20281;-50
2023/07/23 08:16:52;;;;;;;;;;;23.70;62.10;;;;;;8497588;27;19915;-50
2023/07/23 08:20:57;;;;;;;;;;;23.70;62.00;;;;;;8497407;27;19997;-50
2023/07/23 08:24:57;;;;;;;;;;;23.70;62.00;;;;;;8497817;27;19915;-51
2023/07/23 08:28:58;;;;;;;;;;;23.70;62.00;;;;;;8497417;27;19919;-50
2023/07/23 08:33:00;;;;;;;;;;;23.70;62.00;;;;;;8497323;27;19943;-50
2023/07/23 08:37:01;;;;;;;;;;;23.70;62.00;;;;;;8496359;27;19961;-51
2023/07/23 08:41:03;;;;;;;;;;;23.70;62.00;;;;;;8497069;27;19954;-49
2023/07/23 08:45:22;;;;;;;;;;;23.70;62.00;;;;;;8496735;27;19945;-49
2023/07/23 08:49:23;;;;;;;;;;;23.70;62.00;;;;;;8496829;27;19908;-48
2023/07/23 08:53:23;;;;;;;;;;;23.80;62.10;;;;;;8496232;27;19956;-50
2023/07/23 08:57:24;;;;;;;;;;;23.80;62.10;;;;;;8497090;27;19915;-49
2023/07/23 09:01:25;;;;;;;;;;;23.70;62.00;;;;;;8496550;27;19998;-51
2023/07/23 09:05:25;;;;;;;;;;;23.70;62.00;;;;;;8496279;27;20406;-51
2023/07/23 09:09:26;;;;;;;;;;;23.70;62.00;;;;;;8477904;27;19907;-48
2023/07/23 09:13:33;;;;;;;;;;;23.70;62.10;;;;;;8477312;27;19924;-50
2023/07/23 09:17:34;;;;;;;;;;;23.70;62.10;;;;;;8477694;27;19922;-49
2023/07/23 09:21:35;;;;;;;;;;;23.80;62.10;;;;;;8495496;27;19907;-51
2023/07/23 09:25:36;;;;;;;;;;;23.70;62.10;;;;;;8495997;27;20196;-50
2023/07/23 09:29:38;;;;;;;;;;;23.70;62.00;;;;;;8476893;27;20281;-48
2023/07/23 09:33:38;;;;;;;;;;;23.70;62.00;;;;;;8477034;27;19908;-50
2023/07/23 09:37:39;;;;;;;;;;;23.70;62.00;;;;;;8495093;27;19915;-51
2023/07/23 09:41:40;;;;;;;;;;;23.80;62.00;;;;;;8495314;27;19919;-51
2023/07/23 09:45:41;;;;;;;;;;;23.70;62.00;;;;;;8476589;27;19911;-50
2023/07/23 09:49:42;;;;;;;;;;;23.80;62.00;;;;;;8475741;27;20387;-51
2023/07/23 09:53:45;;;;;;;;;;;23.70;62.00;;;;;;8476827;27;19912;-51
2023/07/23 09:57:49;;;;;;;;;;;23.70;61.90;;;;;;8494909;27;19916;-50
2023/07/23 10:01:50;;;;;;;;;;;23.70;61.90;;;;;;8495026;28;20003;-51
2023/07/23 10:05:51;;;;;;;;;;;23.80;62.00;;;;;;8494800;28;19911;-49
2023/07/23 10:09:52;;;;;;;;;;;23.70;61.90;;;;;;8494746;28;19929;-50
2023/07/23 10:13:53;;;;;;;;;;;23.80;62.00;;;;;;8494652;28;19966;-49
2023/07/23 10:17:56;;;;;;;;;;;23.70;61.90;;;;;;8494588;28;19915;-49
2023/07/23 10:21:56;;;;;;;;;;;23.70;61.90;;;;;;8494243;28;19915;-49
2023/07/23 10:26:15;;;;;;;;;;;23.70;61.90;;;;;;8495075;27;20030;-51
2023/07/23 10:30:20;;;;;;;;;;;23.70;62.00;;;;;;8495167;28;20362;-50
2023/07/23 10:34:25;;;;;;;;;;;23.70;62.00;;;;;;8494657;28;19943;-48
2023/07/23 10:38:30;;;;;;;;;;;23.70;62.00;;;;;;8494273;28;19923;-49
2023/07/23 10:42:41;;;;;;;;;;;23.70;61.90;;;;;;8494144;28;19965;-51
2023/07/23 10:46:42;;;;;;;;;;;23.70;62.00;;;;;;8494676;28;19956;-50
2023/07/23 10:50:58;;;;;;;;;;;23.80;62.00;;;;;;8493775;28;19956;-49
2023/07/23 10:55:00;;;;;;;;;;;23.80;61.90;;;;;;8493855;27;19915;-51
2023/07/23 10:59:05;;;;;;;;;;;23.80;61.90;;;;;;8496859;27;19918;-50
2023/07/23 11:03:10;;;;;;;;;;;23.80;61.90;;;;;;8516496;27;19922;-49
2023/07/23 11:07:24;;;;;;;;;;;23.80;61.90;;;;;;8500424;27;19907;-51
2023/07/23 11:11:29;;;;;;;;;;;23.80;61.90;;;;;;8499941;27;19912;-51
2023/07/23 11:15:30;;;;;;;;;;;23.80;61.90;;;;;;8499464;27;19927;-51
2023/07/23 11:19:31;;;;;;;;;;;23.80;61.90;;;;;;8499643;27;20365;-51
2023/07/23 11:23:32;;;;;;;;;;;23.80;61.90;;;;;;8499268;27;19907;-51
2023/07/23 11:27:33;;;;;;;;;;;23.80;61.80;;;;;;8481316;27;19911;-48
2023/07/23 11:31:37;;;;;;;;;;;23.80;61.90;;;;;;8499298;27;19919;-50
2023/07/23 11:35:38;;;;;;;;;;;23.80;61.80;;;;;;8480949;27;19957;-51
2023/07/23 11:39:47;;;;;;;;;;;23.80;61.80;;;;;;8498868;27;19965;-51
2023/07/23 11:43:48;;;;;;;;;;;23.80;61.80;;;;;;8480441;27;20006;-51
2023/07/23 11:47:49;;;;;;;;;;;23.80;61.80;;;;;;8480284;27;19914;-49
2023/07/23 11:51:50;;;;;;;;;;;23.80;61.80;;;;;;8463010;27;19930;-51
2023/07/23 11:55:50;;;;;;;;;;;23.80;61.80;;;;;;8498710;27;20003;-50
2023/07/23 11:59:51;;;;;;;;;;;23.80;62.60;;;;;;8498157;27;20388;-48
2023/07/23 12:03:52;;;;;;;;;;;23.80;61.70;;;;;;8498960;27;19918;-50
2023/07/23 12:07:52;;;;;;;;;;;23.80;61.70;;;;;;8498040;27;19919;-50
2023/07/23 12:11:53;;;;;;;;;;;23.80;61.70;;;;;;8497025;27;20439;-51
2023/07/23 12:15:56;;;;;;;;;;;23.80;61.80;;;;;;8497324;27;19919;-51
2023/07/23 12:19:57;;;;;;;;;;;23.80;61.80;;;;;;8498776;27;19908;-48
2023/07/23 12:24:09;;;;;;;;;;;23.80;61.80;;;;;;8498103;27;20009;-48
2023/07/23 12:28:10;;;;;;;;;;;23.80;61.80;;;;;;8498486;27;19923;-51
2023/07/23 12:32:12;;;;;;;;;;;23.80;61.70;;;;;;8497621;27;19911;-47
2023/07/23 12:36:12;;;;;;;;;;;23.80;61.70;;;;;;8497765;27;19915;-48
2023/07/23 12:40:13;;;;;;;;;;;23.80;61.70;;;;;;8497232;27;19917;-51
2023/07/23 12:44:14;;;;;;;;;;;23.80;61.60;;;;;;8496984;27;19911;-48
2023/07/23 12:48:14;;;;;;;;;;;23.80;61.70;;;;;;8497628;27;19911;-50
2023/07/23 12:52:19;;;;;;;;;;;23.80;61.60;;;;;;8496816;27;20391;-49
2023/07/23 12:56:19;;;;;;;;;;;23.80;61.50;;;;;;8497104;27;19915;-51
2023/07/23 13:00:20;;;;;;;;;;;23.80;61.40;;;;;;8496289;27;19918;-51
2023/07/23 13:04:20;;;;;;;;;;;23.80;61.50;;;;;;8496264;27;19918;-49
2023/07/23 13:08:21;;;;;;;;;;;23.90;61.50;;;;;;8496139;27;20300;-48
2023/07/23 13:12:21;;;;;;;;;;;23.90;61.40;;;;;;8495362;27;19918;-49
2023/07/23 13:16:22;;;;;;;;;;;23.90;61.50;;;;;;8496040;27;19918;-51
2023/07/23 13:20:22;;;;;;;;;;;23.90;61.40;;;;;;8477241;27;19918;-48
2023/07/23 13:24:23;;;;;;;;;;;23.90;61.40;;;;;;8495858;27;19915;-51
2023/07/23 13:28:24;;;;;;;;;;;23.90;61.40;;;;;;8495530;27;19919;-51
2023/07/23 13:32:24;;;;;;;;;;;23.90;61.50;;;;;;8495411;27;19957;-51
2023/07/23 13:36:25;;;;;;;;;;;23.90;61.50;;;;;;8495341;27;19915;-49
2023/07/23 13:40:25;;;;;;;;;;;23.90;61.40;;;;;;8495242;27;19922;-50
2023/07/23 13:44:26;;;;;;;;;;;23.90;61.40;;;;;;8495177;27;19923;-48
2023/07/23 13:48:26;;;;;;;;;;;23.90;61.40;;;;;;8476828;27;19918;-50
2023/07/23 13:52:27;;;;;;;;;;;23.90;61.40;;;;;;8459331;27;19912;-50
2023/07/23 13:56:27;;;;;;;;;;;23.90;61.50;;;;;;8495117;27;20370;-51
2023/07/23 14:00:28;;;;;;;;;;;23.90;61.40;;;;;;8494788;27;19915;-48
2023/07/23 14:04:29;;;;;;;;;;;23.90;61.40;;;;;;8494930;28;19912;-49
2023/07/23 14:08:29;;;;;;;;;;;23.90;61.40;;;;;;8493319;28;19912;-51
2023/07/23 14:12:30;;;;;;;;;;;23.90;61.40;;;;;;8476271;28;20338;-51
2023/07/23 14:16:31;;;;;;;;;;;23.90;61.40;;;;;;8494625;28;19941;-51
2023/07/23 14:20:31;;;;;;;;;;;23.90;61.40;;;;;;8494365;28;19915;-51
2023/07/23 14:24:32;;;;;;;;;;;23.90;61.40;;;;;;8494898;27;19912;-51
2023/07/23 14:28:33;;;;;;;;;;;23.90;61.30;;;;;;8494261;28;19955;-50
2023/07/23 14:32:33;;;;;;;;;;;23.90;61.40;;;;;;8494417;27;19976;-50
2023/07/23 14:36:34;;;;;;;;;;;23.90;61.40;;;;;;8501685;27;19916;-49
2023/07/23 14:40:34;;;;;;;;;;;23.90;61.40;;;;;;8500704;27;19960;-50
2023/07/23 14:44:35;;;;;;;;;;;23.90;61.40;;;;;;8501550;27;20010;-48
2023/07/23 14:48:35;;;;;;;;;;;23.90;61.40;;;;;;8500555;27;19919;-50
2023/07/23 14:52:36;;;;;;;;;;;23.90;61.50;;;;;;8500697;27;19911;-50
2023/07/23 14:56:36;;;;;;;;;;;23.90;61.40;;;;;;8500538;27;19919;-49
2023/07/23 15:00:38;;;;;;;;;;;23.90;61.30;;;;;;8481781;27;19911;-49
2023/07/23 15:04:38;;;;;;;;;;;23.90;61.40;;;;;;8499974;27;19942;-48
2023/07/23 15:08:40;;;;;;;;;;;23.90;61.40;;;;;;8500170;27;19953;-49
2023/07/23 15:12:40;;;;;;;;;;;23.90;61.40;;;;;;8481452;27;19919;-50
2023/07/23 15:16:41;;;;;;;;;;;23.90;61.30;;;;;;8481179;27;20356;-51
2023/07/23 15:20:42;;;;;;;;;;;23.90;61.30;;;;;;8515638;27;19919;-50
2023/07/23 15:24:42;;;;;;;;;;;23.90;61.30;;;;;;8499854;27;19907;-51
2023/07/23 15:28:45;;;;;;;;;;;23.90;61.40;;;;;;8499339;27;20333;-50
2023/07/23 15:32:46;;;;;;;;;;;23.90;61.40;;;;;;8499312;27;20486;-51
2023/07/23 15:36:46;;;;;;;;;;;23.90;61.40;;;;;;8499185;27;20496;-50
2023/07/23 15:40:49;;;;;;;;;;;23.90;61.30;;;;;;8498827;27;19920;-50
2023/07/23 15:44:49;;;;;;;;;;;23.90;61.30;;;;;;8498796;27;19918;-49
2023/07/23 15:48:50;;;;;;;;;;;23.90;61.30;;;;;;8498699;27;19912;-48
2023/07/23 15:52:50;;;;;;;;;;;23.90;61.30;;;;;;8498453;27;20360;-51
2023/07/23 15:56:51;;;;;;;;;;;23.90;61.40;;;;;;8498964;27;20261;-51
2023/07/23 16:00:54;;;;;;;;;;;23.90;61.40;;;;;;8498197;27;19915;-49
2023/07/23 16:04:54;;;;;;;;;;;23.90;61.40;;;;;;8498659;27;19911;-51
2023/07/23 16:08:55;;;;;;;;;;;23.90;61.40;;;;;;8498588;27;19911;-49
2023/07/23 16:12:56;;;;;;;;;;;23.90;61.40;;;;;;8497763;27;20534;-51
2023/07/23 16:16:56;;;;;;;;;;;23.90;61.30;;;;;;8497782;27;19955;-50
2023/07/23 16:20:57;;;;;;;;;;;23.90;61.30;;;;;;8497660;27;20344;-51
2023/07/23 16:24:57;;;;;;;;;;;23.90;61.30;;;;;;8498325;27;20272;-50
2023/07/23 16:28:58;;;;;;;;;;;23.90;61.30;;;;;;8497681;27;20380;-50
2023/07/23 16:32:58;;;;;;;;;;;23.90;61.30;;;;;;8497192;27;19942;-50
2023/07/23 16:37:00;;;;;;;;;;;23.90;61.30;;;;;;8497126;27;19911;-49
2023/07/23 16:41:04;;;;;;;;;;;23.90;61.30;;;;;;8497202;27;19912;-49
2023/07/23 16:45:05;;;;;;;;;;;23.90;61.30;;;;;;8496717;27;20007;-51
2023/07/23 16:49:06;;;;;;;;;;;23.90;61.30;;;;;;8496755;27;19911;-48
2023/07/23 16:53:06;;;;;;;;;;;23.90;61.30;;;;;;8497348;27;20015;-49
2023/07/23 16:57:07;;;;;;;;;;;23.90;61.30;;;;;;8496255;27;19920;-50
2023/07/23 17:01:08;;;;;;;;;;;23.90;61.30;;;;;;8496172;27;19919;-50
2023/07/23 17:05:08;;;;;;;;;;;23.90;61.30;;;;;;8496670;27;19907;-48
2023/07/23 17:09:09;;;;;;;;;;;23.90;61.30;;;;;;8477688;27;19911;-51
2023/07/23 17:13:12;;;;;;;;;;;23.90;61.30;;;;;;8470306;27;19924;-49
2023/07/23 17:17:12;;;;;;;;;;;23.90;61.30;;;;;;8494828;27;19916;-51
2023/07/23 17:21:15;;;;;;;;;;;23.90;61.40;;;;;;8461728;28;19918;-49
2023/07/23 17:25:16;;;;;;;;;;;23.90;61.30;;;;;;8478372;27;20714;-49
2023/07/23 17:29:17;;;;;;;;;;;23.90;61.30;;;;;;8461575;28;20254;-49
2023/07/23 17:33:17;;;;;;;;;;;23.90;61.30;;;;;;8462283;28;20052;-50
2023/07/23 17:37:19;;;;;;;;;;;23.90;61.30;;;;;;8460951;28;19912;-51
2023/07/23 17:41:19;;;;;;;;;;;23.90;61.30;;;;;;8461178;28;19957;-49
2023/07/23 17:45:20;;;;;;;;;;;23.90;61.30;;;;;;8461098;28;19912;-51
2023/07/23 17:49:20;;;;;;;;;;;23.90;61.30;;;;;;8461200;28;19918;-52
2023/07/23 17:53:21;;;;;;;;;;;23.90;61.30;;;;;;8493923;27;19911;-49
2023/07/23 17:57:21;;;;;;;;;;;23.90;61.30;;;;;;8461195;28;19922;-51
2023/07/23 18:01:22;;;;;;;;;;;23.90;61.30;;;;;;8460898;28;19912;-50
2023/07/23 18:05:22;;;;;;;;;;;23.90;61.30;;;;;;8460547;28;20033;-48
2023/07/23 18:09:23;;;;;;;;;;;23.90;61.30;;;;;;8465108;28;19911;-51
2023/07/23 18:13:24;;;;;;;;;;;23.90;62.10;;;;;;8477403;27;19919;-49
2023/07/23 18:17:24;;;;;;;;;;;23.90;61.30;;;;;;8501980;27;20361;-50
2023/07/23 18:21:25;;;;;;;;;;;23.90;61.30;;;;;;8501239;27;19976;-48
2023/07/23 18:25:25;;;;;;;;;;;23.90;61.30;;;;;;8501867;27;19947;-50
2023/07/23 18:29:26;;;;;;;;;;;23.90;61.30;;;;;;8482823;27;19918;-51
2023/07/23 18:33:26;;;;;;;;;;;23.90;61.40;;;;;;8501660;27;20006;-50
2023/07/23 18:37:27;;;;;;;;;;;23.90;61.30;;;;;;8500813;27;19915;-51
2023/07/23 18:41:28;;;;;;;;;;;23.90;61.30;;;;;;8500797;27;19915;-49
2023/07/23 18:45:31;;;;;;;;;;;23.90;61.30;;;;;;8501153;27;19907;-50
2023/07/23 18:49:32;;;;;;;;;;;23.90;61.30;;;;;;8500824;27;19923;-50
2023/07/23 18:53:32;;;;;;;;;;;23.90;61.30;;;;;;8500698;27;20014;-49
2023/07/23 18:57:33;;;;;;;;;;;23.90;61.30;;;;;;8500382;27;19916;-51
2023/07/23 19:01:33;;;;;;;;;;;23.90;61.30;;;;;;8500297;27;19912;-51
2023/07/23 19:05:34;;;;;;;;;;;23.90;61.30;;;;;;8499982;27;19941;-47
2023/07/23 19:09:34;;;;;;;;;;;23.90;61.20;;;;;;8500476;27;19911;-49
2023/07/23 19:13:35;;;;;;;;;;;23.90;61.30;;;;;;8481279;27;19968;-48
2023/07/23 19:17:36;;;;;;;;;;;23.90;61.30;;;;;;8499877;27;19919;-50
2023/07/23 19:21:37;;;;;;;;;;;23.90;61.30;;;;;;8498991;27;19958;-48
2023/07/23 19:25:38;;;;;;;;;;;23.90;61.20;;;;;;8499758;27;20348;-49
2023/07/23 19:29:38;;;;;;;;;;;23.90;61.30;;;;;;8499556;27;20203;-50
2023/07/23 19:33:39;;;;;;;;;;;23.90;61.20;;;;;;8499191;27;19912;-50
2023/07/23 19:37:40;;;;;;;;;;;23.90;61.20;;;;;;8480562;27;20025;-51
2023/07/23 19:41:41;;;;;;;;;;;23.90;61.20;;;;;;8480605;27;19915;-48
2023/07/23 19:45:41;;;;;;;;;;;23.90;61.30;;;;;;8499183;27;19912;-50
2023/07/23 19:49:42;;;;;;;;;;;24.00;61.40;;;;;;8498847;27;19919;-48
2023/07/23 19:53:42;;;;;;;;;;;23.90;61.30;;;;;;8499057;27;20280;-50
2023/07/23 19:57:43;;;;;;;;;;;23.90;61.30;;;;;;8499297;27;19916;-49
2023/07/23 20:01:43;;;;;;;;;;;23.90;61.30;;;;;;8480014;27;20036;-50
2023/07/23 20:05:45;;;;;;;;;;;23.90;61.30;;;;;;8499080;27;20353;-48
2023/07/23 20:09:45;;;;;;;;;;;23.90;61.30;;;;;;8498141;27;19908;-47
2023/07/23 20:13:46;;;;;;;;;;;23.90;61.30;;;;;;8497585;27;19930;-48
2023/07/23 20:17:46;;;;;;;;;;;23.90;61.30;;;;;;8497805;27;19930;-47
2023/07/23 20:21:47;;;;;;;;;;;23.90;61.30;;;;;;8497736;27;19923;-47
2023/07/23 20:25:51;;;;;;;;;;;23.90;61.30;;;;;;8497621;27;19912;-47
2023/07/23 20:29:53;;;;;;;;;;;23.90;61.30;;;;;;8497461;27;19915;-47
2023/07/23 20:33:54;;;;;;;;;;;23.90;61.30;;;;;;8495738;27;19939;-48
2023/07/23 20:37:54;;;;;;;;;;;23.90;61.50;;;;;;8531688;27;19922;-50
2023/07/23 20:41:55;;;;;;;;;;;23.90;61.90;;;;;;8533188;27;20742;-51
2023/07/23 20:45:56;;;;;;;;;;;23.90;62.10;;;;;;8533044;27;19946;-48
2023/07/23 20:49:56;;;;;;;;;;;24.00;61.80;;;;;;8532915;27;19911;-51
2023/07/23 20:53:57;;;;;;;;;;;24.00;61.90;;;;;;8532820;27;20002;-52
2023/07/23 20:57:57;;;;;;;;;;;24.10;61.70;;;;;;8502137;27;19951;-51
2023/07/23 21:01:58;;;;;;;;;;;24.10;61.70;;;;;;8498370;27;19912;-50
2023/07/23 21:05:59;;;;;;;;;;;24.10;61.60;;;;;;8479636;27;20420;-51
2023/07/23 21:10:01;;;;;;;;;;;24.10;61.70;;;;;;8497989;27;19907;-51
2023/07/23 21:14:02;;;;;;;;;;;24.10;61.80;;;;;;8497782;27;19919;-50
2023/07/23 21:18:02;;;;;;;;;;;24.10;61.70;;;;;;8497898;27;19920;-50
2023/07/23 21:22:03;;;;;;;;;;;24.20;61.90;;;;;;8497740;27;19911;-49
2023/07/23 21:26:03;;;;;;;;;;;24.20;61.80;;;;;;8497777;27;19919;-51
2023/07/23 21:30:06;;;;;;;;;;;24.20;61.90;;;;;;8496578;27;22160;-49
2023/07/23 21:34:06;;;;;;;;;;;24.20;62.00;;;;;;8497426;27;20020;-49
2023/07/23 21:38:07;;;;;;;;;;;24.20;61.70;;;;;;8496997;27;19919;-49
2023/07/23 21:42:08;;;;;;;;;;;24.20;61.70;;;;;;8497143;27;19911;-50
2023/07/23 21:46:09;;;;;;;;;;;24.30;61.60;;;;;;8496991;27;19918;-52
2023/07/23 21:50:09;;;;;;;;;;;24.30;61.60;;;;;;8496975;27;19918;-48
2023/07/23 21:54:10;;;;;;;;;;;24.20;61.50;;;;;;8496846;27;19990;-49
2023/07/23 21:58:10;;;;;;;;;;;24.30;61.80;;;;;;8497065;27;19915;-49
2023/07/23 22:02:11;;;;;;;;;;;24.30;61.50;;;;;;8496698;27;20455;-51
2023/07/23 22:06:11;;;;;;;;;;;24.30;61.70;;;;;;8496567;27;20068;-52
2023/07/23 22:10:12;;;;;;;;;;;24.30;61.70;;;;;;8478159;28;19911;-51
2023/07/23 22:14:12;;;;;;;;;;;24.30;61.50;;;;;;8496458;28;20396;-48
2023/07/23 22:18:13;;;;;;;;;;;24.30;61.70;;;;;;8477994;28;19927;-52
2023/07/23 22:22:13;;;;;;;;;;;24.30;61.60;;;;;;8496335;28;20348;-48
2023/07/23 22:26:14;;;;;;;;;;;24.30;62.00;;;;;;8496839;27;19911;-51
2023/07/23 22:30:15;;;;;;;;;;;24.30;61.80;;;;;;8477760;28;19911;-50
2023/07/23 22:34:15;;;;;;;;;;;24.30;61.80;;;;;;8477797;28;20302;-48
2023/07/23 22:38:16;;;;;;;;;;;24.30;61.60;;;;;;8496006;28;20368;-48
2023/07/23 22:42:16;;;;;;;;;;;24.30;62.40;;;;;;8496103;28;19911;-49
2023/07/23 22:46:17;;;;;;;;;;;24.40;62.10;;;;;;8496065;28;19954;-49
2023/07/23 22:50:17;;;;;;;;;;;24.40;61.80;;;;;;8495788;28;19965;-48
2023/07/23 22:54:18;;;;;;;;;;;24.40;61.70;;;;;;8497309;27;20395;-49
2023/07/23 22:58:18;;;;;;;;;;;24.40;61.70;;;;;;8502617;27;19916;-50
2023/07/23 23:02:19;;;;;;;;;;;24.40;61.80;;;;;;8502333;27;19912;-52
2023/07/23 23:06:22;;;;;;;;;;;24.40;61.70;;;;;;8501940;27;19911;-48
2023/07/23 23:10:23;;;;;;;;;;;24.40;61.60;;;;;;8502029;27;19918;-50
2023/07/23 23:14:23;;;;;;;;;;;24.40;61.60;;;;;;8466285;28;19928;-48
2023/07/23 23:18:24;;;;;;;;;;;24.40;61.50;;;;;;8500741;27;20387;-51
2023/07/23 23:22:24;;;;;;;;;;;24.40;61.50;;;;;;8466125;28;19966;-49